Dike, Texas
Current Conditions -  °F | °C
As of 6:35 AM on Thursday 18 Dec 2014 (Local Time) from KSLR Reporting Station
Overcast Overcast  
Wind Chill: 38°   Ceiling: 500
Heat Index: 42°   Visibility: 7mi
Dew Point: 41°   Wind: 6mph
Humidity: 98%   Direction: 110°ESE
Pressure: 30.17"   Gusts: NA
Location:  33.24°N, 95.48°W
Report Text: KSLR 181235Z AUTO 11005KT 7SM BKN005 OVC010 05/05 A3017 RMK AO2 T00530050
Loading
Personal Weather Stations






























Interactive Weather Map New forecast layout! Learn more

10-Day Weather Forecast

Advertisements
Track Severe Weather on mobile